KLRU

Las Cruces International Airport

Las Cruces, New Mexico, USA
METAR KLRU 202015Z AUTO 17005G15KT 10SM SCT060 33/14 A3016 RMK AO2 LTG DSNT N T03300141
Observed Flight Rules
Aug-20 @ 20:15 UTC (15 minutes ago) Visual Flight Rules
Wind Visibility Clouds
170° at 5 knots
 Gusting to 15 knots
10 miles
  • Scattered at 6,000' AGL
Temperatures Readings
Current 33°C / 91°F
Dewpoint 14°C / 57°F
Humidity 32%
Altimeter 30.16" Hg
Pressure 1021 hPa
Elevation 1358
METAR KLRU 202015Z AUTO 17005G15KT 10SM SCT060 33/14 A3016 RMK AO2 LTG DSNT N T03300141
Observed Flight Rules
Aug-20 @ 20:15 UTC
(15 minutes ago)
VFR
Wind Visibility
170° at 5 knots
 Gusting to 15 knots
10 miles
Clouds
  • Scattered at 6,000' AGL
Temperature Dewpoint
33°C / 91°F 14°C / 57°F
Humidity Altimeter Pressure
32% 30.16" Hg 1021 hPa